createdAt,value
2023-05-21T00:01:19.559Z,10.37
2023-05-21T00:03:47.219Z,10.77
2023-05-21T00:06:16.277Z,10.17
2023-05-21T00:08:43.784Z,10.77
2023-05-21T00:11:11.221Z,10.80
2023-05-21T00:13:38.735Z,11.07
2023-05-21T00:16:06.675Z,11.33
2023-05-21T00:18:34.237Z,12.10
2023-05-21T00:21:01.988Z,11.83
2023-05-21T00:23:32.526Z,12.17
2023-05-21T00:26:00.109Z,11.80
2023-05-21T00:28:27.902Z,12.10
2023-05-21T00:30:55.481Z,12.00
2023-05-21T00:33:26.246Z,12.53
2023-05-21T00:35:53.665Z,12.57
2023-05-21T00:38:22.068Z,11.97
2023-05-21T00:40:50.889Z,12.83
2023-05-21T00:43:18.508Z,12.80
2023-05-21T00:45:47.319Z,12.13
2023-05-21T00:48:15.854Z,12.17
2023-05-21T00:50:43.538Z,13.03
2023-05-21T00:53:11.984Z,12.60
2023-05-21T00:55:39.593Z,11.63
2023-05-21T00:58:08.510Z,12.07
2023-05-21T01:00:37.350Z,12.43
2023-05-21T01:03:06.061Z,12.57
2023-05-21T01:05:33.727Z,11.97
2023-05-21T01:08:02.136Z,11.77
2023-05-21T01:10:29.871Z,12.00
2023-05-21T01:12:58.971Z,11.93
2023-05-21T01:15:28.066Z,11.77
2023-05-21T01:17:55.770Z,12.27
2023-05-21T01:20:24.416Z,11.80
2023-05-21T01:22:54.327Z,11.97
2023-05-21T01:25:21.906Z,11.93
2023-05-21T01:27:49.350Z,11.73
2023-05-21T01:30:18.158Z,12.03
2023-05-21T01:32:48.848Z,12.17
2023-05-21T01:35:21.624Z,13.17
2023-05-21T01:37:51.458Z,12.47
2023-05-21T01:40:24.286Z,12.43
2023-05-21T01:42:52.444Z,11.47
2023-05-21T01:45:20.968Z,12.07
2023-05-21T01:47:50.192Z,12.47
2023-05-21T01:50:18.723Z,12.43
2023-05-21T01:52:49.734Z,12.23
2023-05-21T01:55:26.037Z,12.93
2023-05-21T01:57:54.615Z,11.87
2023-05-21T02:00:22.405Z,12.30
2023-05-21T02:02:50.276Z,11.90
2023-05-21T02:05:18.112Z,12.00
2023-05-21T02:07:46.259Z,11.83
2023-05-21T02:10:14.887Z,12.50
2023-05-21T02:12:44.180Z,12.40
2023-05-21T02:15:11.688Z,12.40
2023-05-21T02:17:39.269Z,11.73
2023-05-21T02:20:12.110Z,11.27
2023-05-21T02:22:39.905Z,11.97
2023-05-21T02:25:08.786Z,12.53
2023-05-21T02:27:36.652Z,12.13
2023-05-21T02:30:07.284Z,11.53
2023-05-21T02:32:35.093Z,11.80
2023-05-21T02:35:03.962Z,11.50
2023-05-21T02:37:33.704Z,12.47
2023-05-21T02:40:03.554Z,12.10
2023-05-21T02:42:31.239Z,11.83
2023-05-21T02:44:58.635Z,12.67
2023-05-21T02:47:27.581Z,11.97
2023-05-21T02:49:55.188Z,11.87
2023-05-21T02:52:23.777Z,12.67
2023-05-21T02:54:52.705Z,12.57
2023-05-21T02:57:21.144Z,12.73
2023-05-21T02:59:48.683Z,13.13
2023-05-21T03:02:16.323Z,13.17
2023-05-21T03:04:46.873Z,12.80
2023-05-21T03:07:15.028Z,13.50
2023-05-21T03:09:42.946Z,13.10
2023-05-21T03:12:10.921Z,12.67
2023-05-21T03:14:38.499Z,13.23
2023-05-21T03:17:07.639Z,12.53
2023-05-21T03:19:35.987Z,12.50
2023-05-21T03:22:06.553Z,13.03
2023-05-21T03:24:38.033Z,12.73
2023-05-21T03:27:07.224Z,12.90
2023-05-21T03:29:36.085Z,12.57
2023-05-21T03:32:03.942Z,12.73
2023-05-21T03:34:34.459Z,12.20
2023-05-21T03:37:02.851Z,12.47
2023-05-21T03:39:32.363Z,12.80
2023-05-21T03:42:00.729Z,12.57
2023-05-21T03:44:41.640Z,12.03
2023-05-21T03:47:35.886Z,13.10
2023-05-21T03:50:06.216Z,12.00
2023-05-21T03:52:33.656Z,11.80
2023-05-21T03:55:03.094Z,12.13
2023-05-21T03:57:30.759Z,11.80
2023-05-21T03:59:59.115Z,12.83
2023-05-21T04:02:26.892Z,12.30
2023-05-21T04:04:55.762Z,13.13
2023-05-21T04:07:23.913Z,12.10
2023-05-21T04:09:51.442Z,11.83
2023-05-21T04:12:21.012Z,12.00
2023-05-21T04:14:48.656Z,11.90
2023-05-21T04:17:16.213Z,11.47
2023-05-21T04:19:45.057Z,11.73
2023-05-21T04:22:12.635Z,11.50
2023-05-21T04:24:40.284Z,12.03
2023-05-21T04:27:13.813Z,11.33
2023-05-21T04:29:42.963Z,10.63
2023-05-21T04:32:11.513Z,12.87
2023-05-21T04:34:39.588Z,13.03
2023-05-21T04:37:07.774Z,11.90
2023-05-21T04:39:35.634Z,11.50
2023-05-21T04:42:04.007Z,12.87
2023-05-21T04:44:31.421Z,12.13
2023-05-21T04:47:02.165Z,12.57
2023-05-21T04:49:29.901Z,13.50
2023-05-21T04:51:57.566Z,13.43
2023-05-21T04:54:25.025Z,12.80
2023-05-21T04:56:52.458Z,12.87
2023-05-21T04:59:20.088Z,13.27
2023-05-21T05:01:47.516Z,13.57
2023-05-21T05:04:16.305Z,13.33
2023-05-21T05:06:43.798Z,13.40
2023-05-21T05:09:11.236Z,12.63
2023-05-21T05:11:38.677Z,12.77
2023-05-21T05:14:06.405Z,12.80
2023-05-21T05:16:35.469Z,13.20
2023-05-21T05:19:03.203Z,13.40
2023-05-21T05:21:33.135Z,12.83
2023-05-21T05:24:00.731Z,13.93
2023-05-21T05:26:30.431Z,13.67
2023-05-21T05:28:57.900Z,14.20
2023-05-21T05:31:25.663Z,13.43
2023-05-21T05:33:54.073Z,14.93
2023-05-21T05:36:22.829Z,13.57
2023-05-21T05:38:51.620Z,16.97
2023-05-21T05:41:19.132Z,17.77
2023-05-21T05:43:48.172Z,17.60
2023-05-21T05:46:16.582Z,17.60
2023-05-21T05:48:44.117Z,16.33
2023-05-21T05:51:11.966Z,16.50
2023-05-21T05:53:39.462Z,16.03
2023-05-21T05:56:08.863Z,14.93
2023-05-21T05:58:37.099Z,14.93
2023-05-21T06:01:10.144Z,14.30
2023-05-21T06:03:37.735Z,13.93
2023-05-21T06:06:23.812Z,13.50
2023-05-21T06:08:51.333Z,14.70
2023-05-21T06:11:21.562Z,14.17
2023-05-21T06:13:49.096Z,14.73
2023-05-21T06:16:18.169Z,14.00
2023-05-21T06:18:45.916Z,14.33
2023-05-21T06:21:13.356Z,14.17
2023-05-21T06:23:40.914Z,14.03
2023-05-21T06:26:08.626Z,14.33
2023-05-21T06:28:37.426Z,13.93
2023-05-21T06:31:06.135Z,15.33
2023-05-21T06:33:35.415Z,14.97
2023-05-21T06:36:02.936Z,15.37
2023-05-21T06:38:30.612Z,14.90
2023-05-21T06:40:58.355Z,14.87
2023-05-21T06:43:40.810Z,15.80
2023-05-21T06:46:31.173Z,15.17
2023-05-21T06:49:00.888Z,15.67
2023-05-21T06:51:28.494Z,15.63
2023-05-21T06:53:56.515Z,15.73
2023-05-21T06:56:24.323Z,16.13
2023-05-21T06:58:55.938Z,15.63
2023-05-21T07:01:24.371Z,15.63
2023-05-21T07:03:51.871Z,16.43
2023-05-21T07:06:19.593Z,15.83
2023-05-21T07:08:49.756Z,15.77
2023-05-21T07:11:17.329Z,15.90
2023-05-21T07:13:44.786Z,15.87
2023-05-21T07:16:14.254Z,15.97
2023-05-21T07:18:41.792Z,15.73
2023-05-21T07:21:09.341Z,16.23
2023-05-21T07:23:38.030Z,15.60
2023-05-21T07:26:05.652Z,16.63
2023-05-21T07:28:33.206Z,15.93
2023-05-21T07:31:01.483Z,16.10
2023-05-21T07:33:36.136Z,16.63
2023-05-21T07:36:03.582Z,16.90
2023-05-21T07:38:31.512Z,16.47
2023-05-21T07:40:58.938Z,16.30
2023-05-21T07:43:26.408Z,16.43
2023-05-21T07:45:54.070Z,16.00
2023-05-21T07:48:21.560Z,16.00
2023-05-21T07:50:58.043Z,15.10
2023-05-21T07:53:26.186Z,15.77
2023-05-21T07:55:57.047Z,15.40
2023-05-21T07:58:28.068Z,16.20
2023-05-21T08:00:55.768Z,14.23
2023-05-21T08:03:23.410Z,15.00
2023-05-21T08:05:51.110Z,15.50
2023-05-21T08:08:21.936Z,15.23
2023-05-21T08:10:50.953Z,15.40
2023-05-21T08:13:19.183Z,15.27
2023-05-21T08:15:50.588Z,14.93
2023-05-21T08:18:20.758Z,15.70
2023-05-21T08:20:48.430Z,15.03
2023-05-21T08:23:17.559Z,14.77
2023-05-21T08:25:53.192Z,14.10
2023-05-21T08:28:22.675Z,13.80
2023-05-21T08:30:50.122Z,14.13
2023-05-21T08:33:20.820Z,14.63
2023-05-21T08:35:48.723Z,14.90
2023-05-21T08:38:20.673Z,14.67
2023-05-21T08:41:10.517Z,14.33
2023-05-21T08:43:38.489Z,14.50
2023-05-21T08:46:09.493Z,14.50
2023-05-21T08:48:39.379Z,13.23
2023-05-21T08:51:07.116Z,14.60
2023-05-21T08:53:39.700Z,14.30
2023-05-21T08:56:13.013Z,14.47
2023-05-21T08:58:47.085Z,13.50
2023-05-21T09:01:19.228Z,12.87
2023-05-21T09:03:49.363Z,13.17
2023-05-21T09:06:16.942Z,13.57
2023-05-21T09:08:46.377Z,13.87
2023-05-21T09:11:32.068Z,13.97
2023-05-21T09:14:01.062Z,13.40
2023-05-21T09:16:43.101Z,14.97
2023-05-21T09:19:10.761Z,13.47
2023-05-21T09:21:40.117Z,13.27
2023-05-21T09:24:13.670Z,12.97
2023-05-21T09:26:44.805Z,13.27
2023-05-21T09:29:14.132Z,13.60
2023-05-21T09:31:44.287Z,12.47
2023-05-21T09:34:13.960Z,13.40
2023-05-21T09:36:43.680Z,13.13
2023-05-21T09:39:16.163Z,12.70
2023-05-21T09:41:46.904Z,13.13
2023-05-21T09:44:14.966Z,12.83
2023-05-21T09:46:42.838Z,12.50
2023-05-21T09:49:23.192Z,12.30
2023-05-21T09:51:50.776Z,12.47
2023-05-21T09:54:18.210Z,12.90
2023-05-21T09:56:47.028Z,11.30
2023-05-21T09:59:15.126Z,11.90
2023-05-21T10:01:44.090Z,11.57
2023-05-21T10:04:11.636Z,11.07
2023-05-21T10:06:42.742Z,10.73
2023-05-21T10:09:11.509Z,12.50
2023-05-21T10:11:40.001Z,12.53
2023-05-21T10:14:10.444Z,11.60
2023-05-21T10:16:38.272Z,11.60
2023-05-21T10:19:10.720Z,11.67
2023-05-21T10:21:39.654Z,11.40
2023-05-21T10:24:07.848Z,11.13
2023-05-21T10:26:35.402Z,11.57
2023-05-21T10:29:03.276Z,10.63
2023-05-21T10:31:33.009Z,11.57
2023-05-21T10:34:01.579Z,10.83
2023-05-21T10:36:31.651Z,10.93
2023-05-21T10:38:59.400Z,11.43
2023-05-21T10:41:28.717Z,10.77
2023-05-21T10:44:03.670Z,11.27
2023-05-21T10:46:55.916Z,11.60
2023-05-21T10:49:50.552Z,10.97
2023-05-21T10:52:26.106Z,11.47
2023-05-21T10:55:08.422Z,11.07
2023-05-21T10:57:45.955Z,10.77
2023-05-21T11:00:16.371Z,11.10
2023-05-21T11:02:45.652Z,10.93
2023-05-21T11:05:13.300Z,11.07
2023-05-21T11:07:56.081Z,11.03
2023-05-21T11:10:37.006Z,10.80
2023-05-21T11:13:13.013Z,10.40
2023-05-21T11:16:05.915Z,10.43
2023-05-21T11:18:48.300Z,9.10
2023-05-21T11:21:17.962Z,10.60
2023-05-21T11:23:52.688Z,9.73
2023-05-21T11:26:20.829Z,10.80
2023-05-21T11:28:51.080Z,11.10
2023-05-21T11:31:25.565Z,10.17
2023-05-21T11:34:07.875Z,10.37
2023-05-21T11:36:37.880Z,10.77
2023-05-21T11:39:09.630Z,9.23
2023-05-21T11:41:51.003Z,9.17
2023-05-21T11:44:18.504Z,9.07
2023-05-21T11:46:47.172Z,9.03
2023-05-21T11:49:14.661Z,8.30
2023-05-21T11:51:43.697Z,8.93
2023-05-21T11:54:11.955Z,9.10
2023-05-21T11:56:41.764Z,8.75
2023-05-21T11:59:17.117Z,8.87
2023-05-21T12:01:46.017Z,9.20
2023-05-21T12:04:13.467Z,10.00
2023-05-21T12:06:44.778Z,9.20
2023-05-21T12:09:13.805Z,9.57
2023-05-21T12:11:41.447Z,9.70
2023-05-21T12:14:10.210Z,8.93
2023-05-21T12:16:37.789Z,9.55
2023-05-21T12:19:05.470Z,8.40
2023-05-21T12:21:33.541Z,8.93
2023-05-21T12:24:02.944Z,9.63
2023-05-21T12:26:33.022Z,8.73
2023-05-21T12:29:00.724Z,8.85
2023-05-21T12:31:32.622Z,9.35
2023-05-21T12:34:02.150Z,8.35
2023-05-21T12:36:30.741Z,9.17
2023-05-21T12:38:58.200Z,8.07
2023-05-21T12:41:27.918Z,8.20
2023-05-21T12:43:55.339Z,8.50
2023-05-21T12:46:23.413Z,8.05
2023-05-21T12:48:51.441Z,8.20
2023-05-21T12:51:18.881Z,6.93
2023-05-21T12:53:47.156Z,6.38
2023-05-21T12:56:14.937Z,6.28
2023-05-21T12:58:44.093Z,5.95
2023-05-21T13:01:12.337Z,5.43
2023-05-21T13:03:39.966Z,5.53
2023-05-21T13:06:08.255Z,4.80
2023-05-21T13:08:36.095Z,3.70
2023-05-21T13:11:03.620Z,3.53
2023-05-21T13:13:31.069Z,3.78
2023-05-21T13:16:00.576Z,4.15
2023-05-21T13:18:28.166Z,3.38
2023-05-21T13:20:55.611Z,2.83
2023-05-21T13:23:23.008Z,2.75
2023-05-21T13:25:50.461Z,3.10
2023-05-21T13:28:17.881Z,2.80
2023-05-21T13:30:45.335Z,2.53
2023-05-21T13:33:14.566Z,2.70
2023-05-21T13:35:42.063Z,2.53
2023-05-21T13:38:09.609Z,2.50
2023-05-21T13:40:39.013Z,2.45
2023-05-21T13:43:06.767Z,2.60
2023-05-21T13:45:34.514Z,2.40
2023-05-21T13:48:02.044Z,2.40
2023-05-21T13:50:31.032Z,2.30
2023-05-21T13:52:58.440Z,2.22
2023-05-21T13:55:25.903Z,2.40
2023-05-21T13:57:53.401Z,2.63
2023-05-21T14:00:20.915Z,2.50
2023-05-21T14:02:48.687Z,2.72
2023-05-21T14:05:16.214Z,2.40
2023-05-21T14:07:47.395Z,2.65
2023-05-21T14:10:15.077Z,2.88
2023-05-21T14:12:42.537Z,2.85
2023-05-21T14:15:10.633Z,3.10
2023-05-21T14:17:40.032Z,2.70
2023-05-21T14:20:08.389Z,2.55
2023-05-21T14:22:35.843Z,2.83
2023-05-21T14:25:04.877Z,3.42
2023-05-21T14:27:32.304Z,3.15
2023-05-21T14:29:59.814Z,2.53
2023-05-21T14:32:27.413Z,2.63
2023-05-21T14:34:55.276Z,2.80
2023-05-21T14:37:22.684Z,2.80
2023-05-21T14:39:50.095Z,3.00
2023-05-21T14:42:18.879Z,2.67
2023-05-21T14:44:46.461Z,2.90
2023-05-21T14:47:13.953Z,2.90
2023-05-21T14:49:41.422Z,3.00
2023-05-21T14:52:08.872Z,3.30
2023-05-21T14:54:36.716Z,3.10
2023-05-21T14:57:04.273Z,3.15
2023-05-21T14:59:33.031Z,3.30
2023-05-21T15:02:00.677Z,3.80
2023-05-21T15:04:28.151Z,3.90
2023-05-21T15:06:55.726Z,3.83
2023-05-21T15:09:23.181Z,3.88
2023-05-21T15:11:52.587Z,3.47
2023-05-21T15:14:20.659Z,3.90
2023-05-21T15:16:49.532Z,4.00
2023-05-21T15:19:17.132Z,3.22
2023-05-21T15:21:44.571Z,3.50
2023-05-21T15:24:12.154Z,3.30
2023-05-21T15:26:39.574Z,3.67
2023-05-21T15:29:06.985Z,3.55
2023-05-21T15:31:34.430Z,3.92
2023-05-21T15:34:03.263Z,3.70
2023-05-21T15:36:30.688Z,3.70
2023-05-21T15:38:58.123Z,4.20
2023-05-21T15:41:26.001Z,3.47
2023-05-21T15:43:53.476Z,4.20
2023-05-21T15:46:21.010Z,4.28
2023-05-21T15:48:48.479Z,4.00
2023-05-21T15:51:17.425Z,3.97
2023-05-21T15:53:45.009Z,5.00
2023-05-21T15:56:12.482Z,5.70
2023-05-21T15:58:39.943Z,5.30
2023-05-21T16:01:07.420Z,6.00
2023-05-21T16:03:35.004Z,5.28
2023-05-21T16:06:06.362Z,5.35
2023-05-21T16:08:35.207Z,5.00
2023-05-21T16:11:03.182Z,5.40
2023-05-21T16:13:30.606Z,4.57
2023-05-21T16:15:58.028Z,5.10
2023-05-21T16:18:25.494Z,4.95
2023-05-21T16:20:53.767Z,5.43
2023-05-21T16:23:21.208Z,4.93
2023-05-21T16:25:50.070Z,4.85
2023-05-21T16:28:17.586Z,4.70
2023-05-21T16:30:45.013Z,4.85
2023-05-21T16:33:12.745Z,5.40
2023-05-21T16:35:40.449Z,5.10
2023-05-21T16:38:07.931Z,5.10
2023-05-21T16:40:35.390Z,5.47
2023-05-21T16:43:04.192Z,5.13
2023-05-21T16:45:36.177Z,5.00
2023-05-21T16:48:04.085Z,4.90
2023-05-21T16:50:31.620Z,5.22
2023-05-21T16:53:02.228Z,4.90
2023-05-21T16:55:29.746Z,5.20
2023-05-21T16:57:57.575Z,5.60
2023-05-21T17:00:26.341Z,5.47
2023-05-21T17:02:54.023Z,5.00
2023-05-21T17:05:21.783Z,5.07
2023-05-21T17:07:49.308Z,5.45
2023-05-21T17:10:16.748Z,4.90
2023-05-21T17:12:44.193Z,5.43
2023-05-21T17:15:11.731Z,4.57
2023-05-21T17:17:40.550Z,5.50
2023-05-21T17:20:08.615Z,5.88
2023-05-21T17:22:36.094Z,6.05
2023-05-21T17:25:03.630Z,5.95
2023-05-21T17:27:31.052Z,6.00
2023-05-21T17:29:58.569Z,5.53
2023-05-21T17:32:26.067Z,5.97
2023-05-21T17:34:54.832Z,6.15
2023-05-21T17:37:22.412Z,5.95
2023-05-21T17:39:49.834Z,6.07
2023-05-21T17:42:18.061Z,5.43
2023-05-21T17:44:45.542Z,6.57
2023-05-21T17:47:13.047Z,5.82
2023-05-21T17:49:40.626Z,6.05
2023-05-21T17:52:09.588Z,6.00
2023-05-21T17:54:36.986Z,7.15
2023-05-21T17:57:04.526Z,6.15
2023-05-21T17:59:31.986Z,6.47
2023-05-21T18:02:01.353Z,6.53
2023-05-21T18:04:28.893Z,6.85
2023-05-21T18:06:56.428Z,6.40
2023-05-21T18:09:25.207Z,6.25
2023-05-21T18:11:52.678Z,6.88
2023-05-21T18:14:20.115Z,6.30
2023-05-21T18:16:47.567Z,6.25
2023-05-21T18:19:15.009Z,7.00
2023-05-21T18:21:42.596Z,6.50
2023-05-21T18:24:09.998Z,7.05
2023-05-21T18:26:38.737Z,6.75
2023-05-21T18:29:06.174Z,6.63
2023-05-21T18:31:33.647Z,6.77
2023-05-21T18:34:01.510Z,7.05
2023-05-21T18:36:28.952Z,7.25
2023-05-21T18:38:57.498Z,6.68
2023-05-21T18:41:24.889Z,7.10
2023-05-21T18:43:53.676Z,6.55
2023-05-21T18:46:21.648Z,5.75
2023-05-21T18:48:49.472Z,6.37
2023-05-21T18:51:16.928Z,6.07
2023-05-21T18:53:44.389Z,6.40
2023-05-21T18:56:11.827Z,6.80
2023-05-21T18:58:39.270Z,6.77
2023-05-21T19:01:08.335Z,6.57
2023-05-21T19:03:35.811Z,6.20
2023-05-21T19:06:03.450Z,6.60
2023-05-21T19:08:30.852Z,6.70
2023-05-21T19:10:58.305Z,6.40
2023-05-21T19:13:26.229Z,6.13
2023-05-21T19:15:53.776Z,6.37
2023-05-21T19:18:22.554Z,6.03
2023-05-21T19:20:50.001Z,6.23
2023-05-21T19:23:17.449Z,5.77
2023-05-21T19:25:44.905Z,6.30
2023-05-21T19:28:12.296Z,6.30
2023-05-21T19:30:39.938Z,6.70
2023-05-21T19:33:07.764Z,6.40
2023-05-21T19:35:37.685Z,7.00
2023-05-21T19:38:05.582Z,6.90
2023-05-21T19:40:33.096Z,7.03
2023-05-21T19:43:00.529Z,7.30
2023-05-21T19:45:27.953Z,7.10
2023-05-21T19:47:55.416Z,7.23
2023-05-21T19:50:22.942Z,6.90
2023-05-21T19:52:52.089Z,7.03
2023-05-21T19:55:20.197Z,6.90
2023-05-21T19:57:47.909Z,7.07
2023-05-21T20:00:15.881Z,6.20
2023-05-21T20:02:43.377Z,6.07
2023-05-21T20:05:11.021Z,6.53
2023-05-21T20:07:38.473Z,6.47
2023-05-21T20:10:08.662Z,7.50
2023-05-21T20:12:36.656Z,7.10
2023-05-21T20:15:05.465Z,6.87
2023-05-21T20:17:34.173Z,7.67
2023-05-21T20:20:07.281Z,8.00
2023-05-21T20:22:34.730Z,7.50
2023-05-21T20:25:03.757Z,7.70
2023-05-21T20:27:34.371Z,7.83
2023-05-21T20:30:01.908Z,7.10
2023-05-21T20:32:29.455Z,7.20
2023-05-21T20:35:03.170Z,7.50
2023-05-21T20:37:32.266Z,8.20
2023-05-21T20:39:59.865Z,8.27
2023-05-21T20:42:28.429Z,8.33
2023-05-21T20:44:58.773Z,8.53
2023-05-21T20:47:29.624Z,8.27
2023-05-21T20:49:57.637Z,7.60
2023-05-21T20:52:25.560Z,7.63
2023-05-21T20:54:54.695Z,7.20
2023-05-21T20:57:23.906Z,7.00
2023-05-21T20:59:51.419Z,7.40
2023-05-21T21:02:20.240Z,7.43
2023-05-21T21:04:48.979Z,7.10
2023-05-21T21:07:18.065Z,7.30
2023-05-21T21:09:45.738Z,7.53
2023-05-21T21:12:25.366Z,7.40
2023-05-21T21:14:54.219Z,7.37
2023-05-21T21:17:23.028Z,7.10
2023-05-21T21:19:50.531Z,7.07
2023-05-21T21:22:18.410Z,6.80
2023-05-21T21:24:46.333Z,6.57
2023-05-21T21:27:13.799Z,6.67
2023-05-21T21:29:41.219Z,6.73
2023-05-21T21:32:08.997Z,6.90
2023-05-21T21:34:37.786Z,6.07
2023-05-21T21:37:05.565Z,6.67
2023-05-21T21:39:32.997Z,6.40
2023-05-21T21:42:00.491Z,6.53
2023-05-21T21:44:28.344Z,6.63
2023-05-21T21:46:55.820Z,7.10
2023-05-21T21:49:23.330Z,7.07
2023-05-21T21:51:52.187Z,7.20
2023-05-21T21:54:19.707Z,6.70
2023-05-21T21:56:47.109Z,7.00
2023-05-21T21:59:14.951Z,6.77
2023-05-21T22:01:43.405Z,6.33
2023-05-21T22:04:11.270Z,6.53
2023-05-21T22:06:39.547Z,7.10
2023-05-21T22:09:08.609Z,6.77
2023-05-21T22:11:36.296Z,6.50
2023-05-21T22:14:05.080Z,6.23
2023-05-21T22:16:33.301Z,6.70
2023-05-21T22:19:01.784Z,7.10
2023-05-21T22:21:29.376Z,6.30
2023-05-21T22:23:56.985Z,7.67
2023-05-21T22:26:25.800Z,7.00
2023-05-21T22:28:53.584Z,6.93
2023-05-21T22:31:21.180Z,6.77
2023-05-21T22:33:48.721Z,8.33
2023-05-21T22:36:16.125Z,7.13
2023-05-21T22:38:43.759Z,7.33
2023-05-21T22:41:11.289Z,8.23
2023-05-21T22:43:40.118Z,7.67
2023-05-21T22:46:07.597Z,7.43
2023-05-21T22:48:36.998Z,7.90
2023-05-21T22:51:05.312Z,7.87
2023-05-21T22:53:32.989Z,7.30
2023-05-21T22:56:00.644Z,7.87
2023-05-21T22:58:28.078Z,7.40
2023-05-21T23:00:56.852Z,7.43
2023-05-21T23:03:24.453Z,7.77
2023-05-21T23:05:51.872Z,7.90
2023-05-21T23:08:19.354Z,7.90
2023-05-21T23:10:46.752Z,7.77
2023-05-21T23:13:14.222Z,7.37
2023-05-21T23:15:43.596Z,8.23
2023-05-21T23:18:12.707Z,7.50
2023-05-21T23:20:40.836Z,7.60
2023-05-21T23:23:08.724Z,7.90
2023-05-21T23:25:36.760Z,7.67
2023-05-21T23:28:04.418Z,7.37
2023-05-21T23:30:32.025Z,7.67
2023-05-21T23:32:59.471Z,7.20
2023-05-21T23:35:28.400Z,8.00
2023-05-21T23:37:56.150Z,7.33
2023-05-21T23:40:23.617Z,7.80
2023-05-21T23:42:51.058Z,7.50
2023-05-21T23:45:18.621Z,7.33
2023-05-21T23:47:46.440Z,7.53
2023-05-21T23:50:13.918Z,8.03
2023-05-21T23:52:42.789Z,7.10
2023-05-21T23:55:12.415Z,7.40
2023-05-21T23:57:39.844Z,7.87
